Time;durP1;ratioP1;P1;durP2;ratioP2;P2;SDS_P1;SDS_P2;PMS_P1;PMS_P2;Temp;Humidity;BMP_temperature;BMP_pressure;BME280_temperature;BME280_humidity;BME280_pressure;Samples;Min_cycle;Max_cycle;Signal;HPM_P1;HPM_P2
2022/06/12 00:03:28;;;;;;;8.20;6.78;;;;;;;;;;10431653;28;20815;-92
2022/06/12 00:08:35;;;;;;;7.68;6.88;;;;;;;;;;10421104;28;20486;-92
2022/06/12 00:13:40;;;;;;;8.65;7.50;;;;;;;;;;10417640;28;20409;-91
2022/06/12 00:18:43;;;;;;;8.20;7.40;;;;;;;;;;10427919;28;20411;-91
2022/06/12 00:23:49;;;;;;;7.37;6.67;;;;;;;;;;10420965;28;20512;-91
2022/06/12 00:28:57;;;;;;;8.15;6.57;;;;;;;;;;10397681;28;20408;-91
2022/06/12 00:34:01;;;;;;;7.50;6.70;;;;;;;;;;10432971;28;20892;-91
2022/06/12 00:39:03;;;;;;;7.55;6.80;;;;;;;;;;10429936;28;20887;-91
2022/06/12 00:44:06;;;;;;;7.63;6.53;;;;;;;;;;10425188;28;20442;-92
2022/06/12 00:49:14;;;;;;;7.32;6.60;;;;;;;;;;10420865;28;20407;-92
2022/06/12 00:54:17;;;;;;;7.40;6.57;;;;;;;;;;10422304;28;20406;-91
2022/06/12 00:59:26;;;;;;;7.70;6.30;;;;;;;;;;10425000;28;20408;-91
2022/06/12 01:09:53;;;;;;;6.87;6.20;;;;;;;;;;10432322;28;20449;-91
2022/06/12 01:14:58;;;;;;;9.10;6.77;;;;;;;;;;10426550;28;20955;-92
2022/06/12 01:20:06;;;;;;;10.93;6.53;;;;;;;;;;10440230;28;20416;-92
2022/06/12 01:25:27;;;;;;;6.70;6.10;;;;;;;;;;10429613;28;20911;-92
2022/06/12 01:30:37;;;;;;;8.27;6.35;;;;;;;;;;10416416;28;20623;-90
2022/06/12 01:35:47;;;;;;;7.60;6.80;;;;;;;;;;10423390;28;21253;-92
2022/06/12 01:40:58;;;;;;;6.80;6.20;;;;;;;;;;10440606;28;20511;-92
2022/06/12 01:46:06;;;;;;;8.05;6.70;;;;;;;;;;10439503;28;20407;-91
2022/06/12 01:51:13;;;;;;;8.15;7.35;;;;;;;;;;10442002;28;20487;-92
2022/06/12 01:56:20;;;;;;;9.82;7.20;;;;;;;;;;10421561;28;20766;-92
2022/06/12 02:01:28;;;;;;;9.38;7.03;;;;;;;;;;10439275;28;20415;-91
2022/06/12 02:06:34;;;;;;;9.07;6.95;;;;;;;;;;10483255;28;20404;-92
2022/06/12 02:17:22;;;;;;;8.83;7.60;;;;;;;;;;10322424;28;20409;-92
2022/06/12 02:22:28;;;;;;;7.90;7.20;;;;;;;;;;10424896;28;20526;-92
2022/06/12 02:27:34;;;;;;;8.03;7.23;;;;;;;;;;10466611;28;20399;-91
2022/06/12 02:32:44;;;;;;;7.50;6.43;;;;;;;;;;10443998;28;20494;-91
2022/06/12 02:37:51;;;;;;;8.45;6.90;;;;;;;;;;10448665;28;20411;-92
2022/06/12 02:42:57;;;;;;;8.07;6.17;;;;;;;;;;10446401;28;20527;-91
2022/06/12 02:48:01;;;;;;;6.70;6.03;;;;;;;;;;10440717;28;20439;-92
2022/06/12 02:53:10;;;;;;;7.20;6.47;;;;;;;;;;10461936;28;20458;-91
2022/06/12 02:58:21;;;;;;;6.90;6.20;;;;;;;;;;10427117;28;20892;-91
2022/06/12 03:03:31;;;;;;;7.28;6.55;;;;;;;;;;10447749;28;20426;-91
2022/06/12 03:08:36;;;;;;;6.80;5.88;;;;;;;;;;10447092;28;20486;-92
2022/06/12 03:13:39;;;;;;;7.30;5.95;;;;;;;;;;10446939;28;20412;-92
2022/06/12 03:18:48;;;;;;;6.00;5.40;;;;;;;;;;10445861;28;20859;-92
2022/06/12 03:24:23;;;;;;;7.03;5.28;;;;;;;;;;10446180;28;20463;-91
2022/06/12 03:29:38;;;;;;;6.97;5.28;;;;;;;;;;10426082;28;20395;-92
2022/06/12 03:34:48;;;;;;;7.00;4.97;;;;;;;;;;10445508;28;20487;-91
2022/06/12 03:40:01;;;;;;;5.67;4.90;;;;;;;;;;10445113;28;20924;-91
2022/06/12 03:45:09;;;;;;;6.45;5.28;;;;;;;;;;10431984;28;20865;-92
2022/06/12 03:50:20;;;;;;;7.87;6.70;;;;;;;;;;10445536;28;20562;-91
2022/06/12 04:00:49;;;;;;;8.13;6.70;;;;;;;;;;10429108;28;20434;-91
2022/06/12 04:05:55;;;;;;;8.10;6.07;;;;;;;;;;10409123;28;20775;-92
2022/06/12 04:10:58;;;;;;;7.23;6.47;;;;;;;;;;10429482;28;20484;-92
2022/06/12 04:16:04;;;;;;;8.13;6.30;;;;;;;;;;10402805;28;20398;-92
2022/06/12 04:21:13;;;;;;;7.32;6.60;;;;;;;;;;10384627;28;20416;-92
2022/06/12 04:26:23;;;;;;;7.85;5.85;;;;;;;;;;10442180;28;20483;-92
2022/06/12 04:31:24;;;;;;;7.07;5.50;;;;;;;;;;10393600;28;20449;-92
2022/06/12 04:36:28;;;;;;;5.97;5.38;;;;;;;;;;10395914;28;20529;-92
2022/06/12 04:41:35;;;;;;;5.70;5.10;;;;;;;;;;10382295;28;20420;-92
2022/06/12 04:46:41;;;;;;;5.67;5.10;;;;;;;;;;10414281;28;20433;-93
2022/06/12 04:51:44;;;;;;;8.27;5.80;;;;;;;;;;10432136;28;20415;-92
2022/06/12 04:56:46;;;;;;;7.20;5.65;;;;;;;;;;10425345;28;20498;-91
2022/06/12 05:01:49;;;;;;;7.43;5.00;;;;;;;;;;10433684;28;20507;-90
2022/06/12 05:06:53;;;;;;;7.73;5.50;;;;;;;;;;10455570;28;20412;-91
2022/06/12 05:11:55;;;;;;;6.00;5.30;;;;;;;;;;10430873;28;20433;-92
2022/06/12 05:17:00;;;;;;;6.83;5.53;;;;;;;;;;10436427;28;20407;-80
2022/06/12 05:22:05;;;;;;;6.43;5.53;;;;;;;;;;10426332;28;20426;-92
2022/06/12 05:27:13;;;;;;;6.53;4.63;;;;;;;;;;10443535;28;20430;-92
2022/06/12 05:32:18;;;;;;;5.45;4.95;;;;;;;;;;10427538;28;20412;-94
2022/06/12 05:37:22;;;;;;;8.05;4.60;;;;;;;;;;10403053;28;20400;-82
2022/06/12 05:42:24;;;;;;;6.43;4.70;;;;;;;;;;10416031;28;20515;-91
2022/06/12 05:47:26;;;;;;;5.20;4.43;;;;;;;;;;10435564;28;20913;-92
2022/06/12 05:52:29;;;;;;;6.32;4.90;;;;;;;;;;10422422;28;20494;-92
2022/06/12 05:57:31;;;;;;;5.60;4.33;;;;;;;;;;10422412;28;20549;-93
2022/06/12 06:02:34;;;;;;;4.80;4.10;;;;;;;;;;10451197;28;20451;-92
2022/06/12 06:07:38;;;;;;;5.40;4.50;;;;;;;;;;10428520;28;20410;-92
2022/06/12 06:12:40;;;;;;;7.40;4.18;;;;;;;;;;10427778;28;20458;-93
2022/06/12 06:17:42;;;;;;;5.90;4.13;;;;;;;;;;10459866;28;20421;-92
2022/06/12 06:22:45;;;;;;;4.30;3.90;;;;;;;;;;10461400;28;20405;-92
2022/06/12 06:27:48;;;;;;;3.97;3.57;;;;;;;;;;10438704;28;20737;-93
2022/06/12 06:32:50;;;;;;;4.32;3.92;;;;;;;;;;10424756;28;20441;-93
2022/06/12 06:37:54;;;;;;;5.93;3.90;;;;;;;;;;10429940;28;20499;-92
2022/06/12 06:42:56;;;;;;;4.90;4.00;;;;;;;;;;10424557;28;20842;-92
2022/06/12 06:47:59;;;;;;;4.03;3.50;;;;;;;;;;10434282;28;20401;-91
2022/06/12 06:53:03;;;;;;;4.80;3.78;;;;;;;;;;10427380;28;20582;-92
2022/06/12 06:58:09;;;;;;;4.00;3.60;;;;;;;;;;10392677;28;20496;-92
2022/06/12 07:03:12;;;;;;;4.80;4.35;;;;;;;;;;10369207;28;20405;-92
2022/06/12 07:08:16;;;;;;;6.35;3.92;;;;;;;;;;10384023;28;20413;-93
2022/06/12 07:13:18;;;;;;;4.18;3.60;;;;;;;;;;10378880;28;20763;-93
2022/06/12 07:18:21;;;;;;;4.88;3.70;;;;;;;;;;10390358;28;20476;-92
2022/06/12 07:23:25;;;;;;;4.33;3.67;;;;;;;;;;10388160;28;20889;-92
2022/06/12 07:28:28;;;;;;;4.10;3.70;;;;;;;;;;10383804;28;20491;-91
2022/06/12 07:33:30;;;;;;;4.93;3.95;;;;;;;;;;10387847;28;20413;-93
2022/06/12 07:38:34;;;;;;;3.90;3.60;;;;;;;;;;10380363;28;20837;-93
2022/06/12 07:43:37;;;;;;;5.07;3.85;;;;;;;;;;10390987;28;20432;-93
2022/06/12 07:48:39;;;;;;;6.22;4.72;;;;;;;;;;10387756;28;20767;-93
2022/06/12 07:53:43;;;;;;;5.60;5.00;;;;;;;;;;10388062;28;20480;-93
2022/06/12 07:58:46;;;;;;;4.90;4.50;;;;;;;;;;10431062;28;20440;-94
2022/06/12 08:03:48;;;;;;;4.32;3.92;;;;;;;;;;10429261;28;20529;-92
2022/06/12 08:08:52;;;;;;;5.65;3.72;;;;;;;;;;10418630;28;20837;-93
2022/06/12 08:13:54;;;;;;;4.25;3.70;;;;;;;;;;10427833;28;20417;-92
2022/06/12 08:18:56;;;;;;;3.63;2.97;;;;;;;;;;10407858;28;20444;-93
2022/06/12 08:24:01;;;;;;;4.43;3.60;;;;;;;;;;10425360;28;20456;-93
2022/06/12 08:29:06;;;;;;;4.78;3.78;;;;;;;;;;10427340;28;20404;-92
2022/06/12 08:34:13;;;;;;;4.63;4.20;;;;;;;;;;10422370;28;20462;-93
2022/06/12 08:39:16;;;;;;;5.28;4.78;;;;;;;;;;10430350;28;20415;-93
2022/06/12 08:44:23;;;;;;;5.07;3.85;;;;;;;;;;10424019;28;20446;-92
2022/06/12 08:49:29;;;;;;;4.03;3.55;;;;;;;;;;10435873;28;20404;-93
2022/06/12 08:54:39;;;;;;;3.63;3.20;;;;;;;;;;10429174;28;20426;-93
2022/06/12 08:59:46;;;;;;;4.03;3.53;;;;;;;;;;10420989;28;20417;-93
2022/06/12 09:04:48;;;;;;;5.25;3.95;;;;;;;;;;10420405;28;20427;-91
2022/06/12 09:09:56;;;;;;;3.70;3.20;;;;;;;;;;10426058;28;20957;-93
2022/06/12 09:15:10;;;;;;;3.70;3.40;;;;;;;;;;10414164;28;20549;-92
2022/06/12 09:20:18;;;;;;;3.45;3.15;;;;;;;;;;10425037;28;20408;-93
2022/06/12 09:25:26;;;;;;;3.30;3.00;;;;;;;;;;10423085;28;20980;-93
2022/06/12 09:30:38;;;;;;;3.50;3.20;;;;;;;;;;10424832;28;20455;-93
2022/06/12 09:35:52;;;;;;;3.53;3.00;;;;;;;;;;10448880;28;20447;-92
2022/06/12 09:41:08;;;;;;;3.38;2.78;;;;;;;;;;10430300;28;20409;-93
2022/06/12 09:46:35;;;;;;;3.05;2.75;;;;;;;;;;10429632;28;20429;-93
2022/06/12 09:51:52;;;;;;;4.40;3.03;;;;;;;;;;10431922;28;20931;-93
2022/06/12 09:57:02;;;;;;;3.10;2.90;;;;;;;;;;10421206;28;20488;-93
2022/06/12 10:02:15;;;;;;;2.90;2.70;;;;;;;;;;10430988;28;20560;-93
2022/06/12 10:07:22;;;;;;;3.60;3.35;;;;;;;;;;10428039;28;20408;-92
2022/06/12 10:12:30;;;;;;;3.30;3.00;;;;;;;;;;10432713;28;20840;-93
2022/06/12 10:17:38;;;;;;;4.45;2.92;;;;;;;;;;10427903;28;20826;-92
2022/06/12 10:22:43;;;;;;;3.30;3.00;;;;;;;;;;10428325;28;20467;-94
2022/06/12 10:27:49;;;;;;;2.92;2.72;;;;;;;;;;10415364;28;20950;-93
2022/06/12 10:32:57;;;;;;;3.33;3.03;;;;;;;;;;10431509;28;20407;-93
2022/06/12 10:38:06;;;;;;;6.47;3.17;;;;;;;;;;10412291;28;20458;-92
2022/06/12 10:43:28;;;;;;;3.90;3.33;;;;;;;;;;10427539;28;20765;-93
2022/06/12 10:48:34;;;;;;;3.58;3.28;;;;;;;;;;10409485;28;20409;-93
2022/06/12 10:53:36;;;;;;;3.72;2.80;;;;;;;;;;10426092;28;20488;-93
2022/06/12 10:59:19;;;;;;;3.40;2.77;;;;;;;;;;10429419;28;20425;-92
2022/06/12 11:04:38;;;;;;;3.17;2.87;;;;;;;;;;10431098;28;20419;-94
2022/06/12 11:09:53;;;;;;;3.15;2.92;;;;;;;;;;10430368;28;20415;-93
2022/06/12 11:15:14;;;;;;;3.08;2.70;;;;;;;;;;10435735;28;20761;-94
2022/06/12 11:20:24;;;;;;;3.03;2.70;;;;;;;;;;10426671;28;20737;-92
2022/06/12 11:25:40;;;;;;;4.13;2.93;;;;;;;;;;10427474;28;20507;-94
2022/06/12 11:30:57;;;;;;;2.58;2.38;;;;;;;;;;10428860;28;20407;-93
2022/06/12 11:36:07;;;;;;;2.95;2.58;;;;;;;;;;10433561;28;20479;-93
2022/06/12 11:41:17;;;;;;;3.63;2.60;;;;;;;;;;10425611;28;20848;-93
2022/06/12 11:46:28;;;;;;;3.92;2.97;;;;;;;;;;10432889;28;20415;-93
2022/06/12 11:51:40;;;;;;;4.50;2.75;;;;;;;;;;10430219;28;20427;-93
2022/06/12 11:56:48;;;;;;;3.47;2.47;;;;;;;;;;10427225;28;20440;-93
2022/06/12 12:01:59;;;;;;;3.95;2.60;;;;;;;;;;10425087;28;20492;-93
2022/06/12 12:07:18;;;;;;;3.47;2.57;;;;;;;;;;10426975;28;20902;-92
2022/06/12 12:12:24;;;;;;;3.47;2.47;;;;;;;;;;10427463;28;20486;-93
2022/06/12 12:17:30;;;;;;;3.30;2.53;;;;;;;;;;10426155;28;20510;-93
2022/06/12 12:22:38;;;;;;;2.70;2.50;;;;;;;;;;10429294;28;20418;-94
2022/06/12 12:27:43;;;;;;;2.88;2.67;;;;;;;;;;10446908;28;20417;-93
2022/06/12 12:32:49;;;;;;;3.05;2.80;;;;;;;;;;10463094;28;20410;-92
2022/06/12 12:43:10;;;;;;;3.35;2.60;;;;;;;;;;10468391;28;20418;-94
2022/06/12 12:48:15;;;;;;;2.75;2.17;;;;;;;;;;10429566;28;20740;-93
2022/06/12 12:53:24;;;;;;;3.03;2.63;;;;;;;;;;10407127;28;20426;-94
2022/06/12 12:58:26;;;;;;;4.18;2.63;;;;;;;;;;10428785;28;20406;-94
2022/06/12 13:03:37;;;;;;;2.70;2.50;;;;;;;;;;10433127;28;20457;-93
2022/06/12 13:08:59;;;;;;;3.50;2.70;;;;;;;;;;10435962;28;20471;-93
2022/06/12 13:14:12;;;;;;;3.00;2.80;;;;;;;;;;10446157;28;20503;-93
2022/06/12 13:19:37;;;;;;;3.22;2.40;;;;;;;;;;10436699;28;20629;-93
2022/06/12 13:24:43;;;;;;;2.78;2.50;;;;;;;;;;10410586;28;20421;-93
2022/06/12 13:29:46;;;;;;;2.72;2.42;;;;;;;;;;10431543;28;20490;-92
2022/06/12 13:34:57;;;;;;;2.73;2.53;;;;;;;;;;10439438;28;20479;-92
2022/06/12 13:40:01;;;;;;;2.38;2.13;;;;;;;;;;10433355;28;20404;-90
2022/06/12 13:45:03;;;;;;;2.97;2.30;;;;;;;;;;10434549;28;20423;-92
2022/06/12 13:50:23;;;;;;;2.57;2.33;;;;;;;;;;10427467;28;20413;-91
2022/06/12 13:55:27;;;;;;;2.60;2.20;;;;;;;;;;10429347;28;20427;-95
2022/06/12 14:00:34;;;;;;;4.10;2.40;;;;;;;;;;10432350;28;20503;-93
2022/06/12 14:05:46;;;;;;;2.78;2.40;;;;;;;;;;10427349;28;20442;-93
2022/06/12 14:10:50;;;;;;;2.53;2.33;;;;;;;;;;10423879;28;20486;-93
2022/06/12 14:15:53;;;;;;;2.50;2.30;;;;;;;;;;10431304;28;20910;-91
2022/06/12 14:21:05;;;;;;;2.80;2.20;;;;;;;;;;10433938;28;20449;-93
2022/06/12 14:26:22;;;;;;;2.50;2.30;;;;;;;;;;10429180;28;20520;-93
2022/06/12 14:31:28;;;;;;;6.70;2.35;;;;;;;;;;10428924;28;20441;-93
2022/06/12 14:36:36;;;;;;;4.32;2.40;;;;;;;;;;10430287;28;20872;-92
2022/06/12 14:41:48;;;;;;;2.40;2.20;;;;;;;;;;10425294;28;20421;-93
2022/06/12 14:46:50;;;;;;;2.50;2.30;;;;;;;;;;10433096;28;20424;-93
2022/06/12 14:51:55;;;;;;;2.87;2.00;;;;;;;;;;10429801;28;20709;-83
2022/06/12 14:56:57;;;;;;;2.40;2.07;;;;;;;;;;10433962;28;20779;-93
2022/06/12 15:01:59;;;;;;;2.13;1.93;;;;;;;;;;10427809;28;20411;-93
2022/06/12 15:07:04;;;;;;;3.20;1.90;;;;;;;;;;10423174;28;20426;-92
2022/06/12 15:12:06;;;;;;;1.92;1.80;;;;;;;;;;10424713;28;20467;-92
2022/06/12 15:17:12;;;;;;;3.25;2.13;;;;;;;;;;10419981;28;20418;-92
2022/06/12 15:22:21;;;;;;;2.40;2.10;;;;;;;;;;10420143;28;20781;-91
2022/06/12 15:32:43;;;;;;;3.80;2.10;;;;;;;;;;10417515;28;20406;-90
2022/06/12 15:37:49;;;;;;;3.70;2.08;;;;;;;;;;10418986;28;20475;-87
2022/06/12 15:42:51;;;;;;;2.78;1.70;;;;;;;;;;10423476;28;20476;-95
2022/06/12 15:47:53;;;;;;;1.83;1.73;;;;;;;;;;10433185;28;20516;-94
2022/06/12 15:52:57;;;;;;;3.20;2.90;;;;;;;;;;10413052;28;20402;-90
2022/06/12 15:57:59;;;;;;;2.55;2.35;;;;;;;;;;10428582;28;20447;-77
2022/06/12 16:03:01;;;;;;;3.15;1.90;;;;;;;;;;10426274;28;20520;-90
2022/06/12 16:08:05;;;;;;;3.00;1.80;;;;;;;;;;10426754;28;20502;-91
2022/06/12 16:13:07;;;;;;;3.90;3.25;;;;;;;;;;10414253;28;20515;-87
2022/06/12 16:18:09;;;;;;;5.70;4.03;;;;;;;;;;10416007;28;20900;-87
2022/06/12 16:23:13;;;;;;;3.30;2.47;;;;;;;;;;10416235;28;20403;-91
2022/06/12 16:28:16;;;;;;;4.93;4.53;;;;;;;;;;10425479;28;20852;-88
2022/06/12 16:33:20;;;;;;;2.97;2.50;;;;;;;;;;10432079;28;20504;-87
2022/06/12 16:38:23;;;;;;;4.30;2.72;;;;;;;;;;10430214;28;20467;-80
2022/06/12 16:43:25;;;;;;;7.10;6.40;;;;;;;;;;10423034;28;20498;-81
2022/06/12 16:48:27;;;;;;;3.90;3.50;;;;;;;;;;10424539;28;20423;-89
2022/06/12 16:53:30;;;;;;;6.20;3.63;;;;;;;;;;10424110;28;20419;-89
2022/06/12 16:58:32;;;;;;;3.15;2.17;;;;;;;;;;10402145;28;20499;-89
2022/06/12 17:03:36;;;;;;;2.83;2.10;;;;;;;;;;10417477;28;20707;-91
2022/06/12 17:08:39;;;;;;;3.30;2.23;;;;;;;;;;10387550;28;20923;-92
2022/06/12 17:13:41;;;;;;;2.20;1.90;;;;;;;;;;10421539;28;20415;-89
2022/06/12 17:24:05;;;;;;;2.20;2.00;;;;;;;;;;10395749;28;20902;-90
2022/06/12 17:29:07;;;;;;;2.10;1.90;;;;;;;;;;10394621;28;20481;-93
2022/06/12 17:34:09;;;;;;;3.00;2.00;;;;;;;;;;10383902;28;20414;-92
2022/06/12 17:39:12;;;;;;;3.80;2.20;;;;;;;;;;10369920;28;20399;-92
2022/06/12 17:44:15;;;;;;;3.33;2.25;;;;;;;;;;10378300;28;20409;-92
2022/06/12 17:49:18;;;;;;;2.33;2.10;;;;;;;;;;10360955;28;20420;-92
2022/06/12 17:54:21;;;;;;;2.23;2.03;;;;;;;;;;10390929;28;20508;-93
2022/06/12 17:59:23;;;;;;;2.30;2.10;;;;;;;;;;10428878;28;20426;-89
2022/06/12 18:04:25;;;;;;;5.15;2.13;;;;;;;;;;10433272;28;20525;-93
2022/06/12 18:09:29;;;;;;;5.10;2.40;;;;;;;;;;10428619;28;20412;-94
2022/06/12 18:19:46;;;;;;;3.33;2.33;;;;;;;;;;10430256;28;20392;-94
2022/06/12 18:24:50;;;;;;;2.28;1.95;;;;;;;;;;10423296;28;20510;-92
2022/06/12 18:29:56;;;;;;;3.28;2.30;;;;;;;;;;10421302;28;20512;-93
2022/06/12 18:34:57;;;;;;;2.92;2.40;;;;;;;;;;10429354;28;20447;-92
2022/06/12 18:40:01;;;;;;;3.50;2.40;;;;;;;;;;10431760;28;20392;-92
2022/06/12 18:45:03;;;;;;;3.03;2.38;;;;;;;;;;10429025;28;20904;-93
2022/06/12 18:50:06;;;;;;;6.03;2.30;;;;;;;;;;10430350;28;20976;-93
2022/06/12 18:55:11;;;;;;;5.57;2.50;;;;;;;;;;10364100;28;1956986;-92
2022/06/12 19:00:16;;;;;;;7.60;2.50;;;;;;;;;;10446825;28;20503;-92
2022/06/12 19:05:18;;;;;;;4.07;2.37;;;;;;;;;;10446704;28;20458;-93
2022/06/12 19:10:22;;;;;;;6.13;2.53;;;;;;;;;;10470641;28;20407;-93
2022/06/12 19:15:23;;;;;;;3.75;2.30;;;;;;;;;;10463959;28;20412;-92
2022/06/12 19:20:26;;;;;;;4.40;2.30;;;;;;;;;;10449819;28;20459;-91
2022/06/12 19:25:30;;;;;;;5.43;2.97;;;;;;;;;;10436001;28;20538;-90
2022/06/12 19:30:33;;;;;;;3.40;3.00;;;;;;;;;;10437595;28;20429;-93
2022/06/12 19:35:36;;;;;;;4.53;2.88;;;;;;;;;;10442241;28;20454;-94
2022/06/12 19:40:40;;;;;;;4.60;3.00;;;;;;;;;;10445279;28;20510;-93
2022/06/12 19:45:42;;;;;;;4.43;3.25;;;;;;;;;;10435715;28;20419;-93
2022/06/12 19:50:43;;;;;;;4.45;3.30;;;;;;;;;;10440246;28;20491;-93
2022/06/12 19:55:50;;;;;;;4.10;3.20;;;;;;;;;;10434071;28;20503;-92
2022/06/12 20:00:52;;;;;;;5.10;2.92;;;;;;;;;;10438800;28;20598;-92
2022/06/12 20:11:15;;;;;;;3.70;2.87;;;;;;;;;;10427597;28;20408;-92
2022/06/12 20:16:17;;;;;;;3.92;3.10;;;;;;;;;;10421688;28;20492;-92
2022/06/12 20:21:20;;;;;;;5.07;3.10;;;;;;;;;;10436770;28;20962;-92
2022/06/12 20:26:24;;;;;;;3.90;2.80;;;;;;;;;;10440085;28;21131;-90
2022/06/12 20:31:26;;;;;;;4.00;2.88;;;;;;;;;;10426508;28;20506;-92
2022/06/12 20:36:28;;;;;;;5.38;3.22;;;;;;;;;;10450401;28;20478;-92
2022/06/12 20:41:31;;;;;;;3.85;3.15;;;;;;;;;;10457349;28;20426;-93
2022/06/12 20:46:34;;;;;;;4.23;3.00;;;;;;;;;;10440424;28;20424;-93
2022/06/12 20:51:36;;;;;;;4.40;2.90;;;;;;;;;;10439034;28;20496;-93
2022/06/12 20:56:39;;;;;;;3.60;3.30;;;;;;;;;;10416753;28;20447;-94
2022/06/12 21:01:41;;;;;;;3.70;3.40;;;;;;;;;;10395829;28;20467;-92
2022/06/12 21:06:44;;;;;;;4.17;3.07;;;;;;;;;;10379746;28;20432;-94
2022/06/12 21:11:48;;;;;;;5.20;3.10;;;;;;;;;;10381368;28;20523;-92
2022/06/12 21:16:50;;;;;;;4.15;3.20;;;;;;;;;;10383038;28;20857;-91
2022/06/12 21:21:53;;;;;;;3.45;3.00;;;;;;;;;;10382424;28;20423;-92
2022/06/12 21:26:57;;;;;;;3.50;3.20;;;;;;;;;;10389614;28;20509;-91
2022/06/12 21:31:59;;;;;;;4.33;3.27;;;;;;;;;;10376926;28;20409;-94
2022/06/12 21:37:02;;;;;;;5.20;3.13;;;;;;;;;;10379205;28;20417;-93
2022/06/12 21:42:06;;;;;;;3.35;2.90;;;;;;;;;;10386776;28;20759;-91
2022/06/12 21:47:08;;;;;;;3.88;3.22;;;;;;;;;;10393620;28;20477;-92
2022/06/12 21:57:30;;;;;;;3.60;3.10;;;;;;;;;;10421840;28;20396;-92
2022/06/12 22:02:32;;;;;;;5.45;3.10;;;;;;;;;;10432515;28;20453;-92
2022/06/12 22:07:34;;;;;;;4.55;3.13;;;;;;;;;;10434512;28;20814;-93
2022/06/12 22:12:38;;;;;;;3.92;3.22;;;;;;;;;;10431568;28;20778;-93
2022/06/12 22:17:40;;;;;;;5.20;3.58;;;;;;;;;;10431532;28;20771;-93
2022/06/12 22:22:42;;;;;;;4.25;3.45;;;;;;;;;;10441467;28;20962;-93
2022/06/12 22:27:46;;;;;;;5.28;3.78;;;;;;;;;;10438669;28;20434;-92
2022/06/12 22:32:48;;;;;;;4.85;3.70;;;;;;;;;;10433511;28;20515;-92
2022/06/12 22:37:50;;;;;;;6.15;3.60;;;;;;;;;;10416964;28;20398;-93
2022/06/12 22:42:53;;;;;;;3.70;3.25;;;;;;;;;;10442875;28;20486;-93
2022/06/12 22:47:55;;;;;;;4.47;3.20;;;;;;;;;;10435140;28;20421;-92
2022/06/12 22:52:57;;;;;;;4.47;3.30;;;;;;;;;;10415050;28;20401;-92
2022/06/12 22:58:00;;;;;;;4.57;3.57;;;;;;;;;;10424364;28;20459;-93
2022/06/12 23:03:02;;;;;;;4.97;3.60;;;;;;;;;;10428806;28;20411;-94
2022/06/12 23:08:06;;;;;;;5.47;3.72;;;;;;;;;;10418161;28;20419;-91
2022/06/12 23:13:09;;;;;;;4.83;3.43;;;;;;;;;;10424581;28;20409;-92
2022/06/12 23:18:11;;;;;;;3.83;3.45;;;;;;;;;;10436318;28;20494;-92
2022/06/12 23:28:38;;;;;;;3.85;3.45;;;;;;;;;;10431335;28;20420;-92
2022/06/12 23:33:40;;;;;;;4.67;4.20;;;;;;;;;;10433001;28;20519;-91
2022/06/12 23:38:42;;;;;;;5.77;4.37;;;;;;;;;;10440471;28;20410;-92
2022/06/12 23:43:46;;;;;;;5.03;4.47;;;;;;;;;;10427973;28;20490;-93
2022/06/12 23:48:50;;;;;;;6.97;5.10;;;;;;;;;;10467455;28;20454;-92
2022/06/12 23:53:52;;;;;;;6.90;6.20;;;;;;;;;;10466501;28;20467;-92
2022/06/12 23:58:56;;;;;;;8.65;6.40;;;;;;;;;;10441140;28;20439;-92
